createdAt,value
2018-12-06T00:00:14.262Z,1010.30
2018-12-06T00:01:14.334Z,1010.29
2018-12-06T00:02:14.368Z,1010.32
2018-12-06T00:03:14.455Z,1010.29
2018-12-06T00:04:14.427Z,1010.33
2018-12-06T00:05:14.725Z,1010.32
2018-12-06T00:06:14.450Z,1010.30
2018-12-06T00:07:14.475Z,1010.27
2018-12-06T00:08:14.535Z,1010.27
2018-12-06T00:09:14.598Z,1010.24
2018-12-06T00:10:14.621Z,1010.27
2018-12-06T00:11:14.715Z,1010.22
2018-12-06T00:13:15.171Z,1010.23
2018-12-06T00:14:14.753Z,1010.24
2018-12-06T00:15:14.889Z,1010.25
2018-12-06T00:16:14.811Z,1010.28
2018-12-06T00:17:14.800Z,1010.27
2018-12-06T00:18:14.980Z,1010.29
2018-12-06T00:19:14.867Z,1010.30
2018-12-06T00:20:15.202Z,1010.30
2018-12-06T00:21:15.068Z,1010.31
2018-12-06T00:22:14.963Z,1010.29
2018-12-06T00:23:14.997Z,1010.33
2018-12-06T00:24:15.024Z,1010.34
2018-12-06T00:25:15.051Z,1010.35
2018-12-06T00:26:15.138Z,1010.35
2018-12-06T00:27:15.466Z,1010.34
2018-12-06T00:28:15.201Z,1010.37
2018-12-06T00:29:15.181Z,1010.35
2018-12-06T00:30:15.315Z,1010.36
2018-12-06T00:31:15.249Z,1010.38
2018-12-06T00:32:15.328Z,1010.35
2018-12-06T00:33:15.374Z,1010.36
2018-12-06T00:34:15.641Z,1010.31
2018-12-06T00:35:15.375Z,1010.36
2018-12-06T00:36:15.400Z,1010.40
2018-12-06T00:37:15.478Z,1010.39
2018-12-06T00:38:15.616Z,1010.35
2018-12-06T00:39:15.562Z,1010.38
2018-12-06T00:40:15.599Z,1010.45
2018-12-06T00:41:15.933Z,1010.42
2018-12-06T00:42:15.675Z,1010.42
2018-12-06T00:43:15.830Z,1010.38
2018-12-06T00:45:15.693Z,1010.37
2018-12-06T00:46:16.778Z,1010.39
2018-12-06T00:47:16.076Z,1010.37
2018-12-06T00:48:16.260Z,1010.37
2018-12-06T00:49:15.873Z,1010.34
2018-12-06T00:50:15.911Z,1010.33
2018-12-06T00:51:15.931Z,1010.30
2018-12-06T00:52:15.916Z,1010.32
2018-12-06T00:53:16.248Z,1010.33
2018-12-06T00:54:16.044Z,1010.35
2018-12-06T00:55:16.063Z,1010.34
2018-12-06T00:56:16.095Z,1010.34
2018-12-06T00:57:16.279Z,1010.36
2018-12-06T00:58:16.154Z,1010.29
2018-12-06T01:00:16.528Z,1010.26
2018-12-06T01:01:16.256Z,1010.29
2018-12-06T01:02:16.293Z,1010.23
2018-12-06T01:03:16.321Z,1010.28
2018-12-06T01:04:16.299Z,1010.25
2018-12-06T01:05:16.333Z,1010.24
2018-12-06T01:06:16.719Z,1010.30
2018-12-06T01:07:16.473Z,1010.27
2018-12-06T01:08:16.580Z,1010.31
2018-12-06T01:09:16.459Z,1010.28
2018-12-06T01:10:16.540Z,1010.27
2018-12-06T01:11:16.517Z,1010.22
2018-12-06T01:13:16.989Z,1010.19
2018-12-06T01:14:16.630Z,1010.19
2018-12-06T01:15:16.657Z,1010.20
2018-12-06T01:16:16.837Z,1010.19
2018-12-06T01:17:16.766Z,1010.15
2018-12-06T01:18:16.803Z,1010.13
2018-12-06T01:19:16.789Z,1010.18
2018-12-06T01:20:17.128Z,1010.23
2018-12-06T01:21:16.992Z,1010.19
2018-12-06T01:22:16.879Z,1010.17
2018-12-06T01:23:16.953Z,1010.22
2018-12-06T01:24:16.952Z,1010.24
2018-12-06T01:25:17.063Z,1010.22
2018-12-06T01:26:16.995Z,1010.22
2018-12-06T01:27:17.331Z,1010.19
2018-12-06T01:28:17.111Z,1010.19
2018-12-06T01:29:17.244Z,1010.23
2018-12-06T01:30:17.185Z,1010.22
2018-12-06T01:31:17.168Z,1010.16
2018-12-06T01:32:17.195Z,1010.18
2018-12-06T01:33:17.288Z,1010.20
2018-12-06T01:34:17.551Z,1010.21
2018-12-06T01:35:17.289Z,1010.23
2018-12-06T01:36:17.317Z,1010.18
2018-12-06T01:37:17.348Z,1010.18
2018-12-06T01:38:17.432Z,1010.18
2018-12-06T01:39:17.466Z,1010.22
2018-12-06T01:40:17.442Z,1010.18
2018-12-06T01:41:17.781Z,1010.15
2018-12-06T01:42:17.563Z,1010.18
2018-12-06T01:43:17.590Z,1010.18
2018-12-06T01:44:17.631Z,1010.17
2018-12-06T01:45:17.658Z,1010.12
2018-12-06T01:46:17.684Z,1010.09
2018-12-06T01:48:17.752Z,1010.15
2018-12-06T01:49:18.054Z,1010.11
2018-12-06T01:50:17.832Z,1010.14
2018-12-06T01:51:17.802Z,1010.13
2018-12-06T01:52:17.881Z,1010.10
2018-12-06T01:53:17.918Z,1010.13
2018-12-06T01:54:17.946Z,1010.13
2018-12-06T01:55:17.925Z,1010.08
2018-12-06T01:56:18.311Z,1010.09
2018-12-06T01:57:17.997Z,1010.07
2018-12-06T01:58:18.074Z,1010.07
2018-12-06T01:59:18.054Z,1010.06
2018-12-06T02:00:18.084Z,1010.08
2018-12-06T02:01:18.164Z,1010.11
2018-12-06T02:02:18.253Z,1010.11
2018-12-06T02:03:18.530Z,1010.11
2018-12-06T02:04:18.360Z,1010.12
2018-12-06T02:05:18.302Z,1010.07
2018-12-06T02:06:18.329Z,1010.13
2018-12-06T02:07:18.357Z,1010.12
2018-12-06T02:08:18.389Z,1010.12
2018-12-06T02:09:18.368Z,1010.13
2018-12-06T02:10:18.704Z,1010.12
2018-12-06T02:11:18.482Z,1010.14
2018-12-06T02:12:18.519Z,1010.16
2018-12-06T02:13:18.553Z,1010.13
2018-12-06T02:14:18.583Z,1010.09
2018-12-06T02:15:18.617Z,1010.09
2018-12-06T02:16:18.595Z,1010.11
2018-12-06T02:17:19.230Z,1010.10
2018-12-06T02:18:18.724Z,1010.11
2018-12-06T02:19:18.694Z,1010.09
2018-12-06T02:20:18.771Z,1010.06
2018-12-06T02:21:18.770Z,1010.14
2018-12-06T02:22:18.841Z,1010.07
2018-12-06T02:23:19.527Z,1010.08
2018-12-06T02:24:19.162Z,1010.04
2018-12-06T02:25:18.935Z,1010.04
2018-12-06T02:26:18.978Z,1010.04
2018-12-06T02:27:19.097Z,1010.04
2018-12-06T02:28:18.978Z,1010.01
2018-12-06T02:29:19.161Z,1010.02
2018-12-06T02:30:19.087Z,1009.98
2018-12-06T02:31:19.389Z,1010.06
2018-12-06T02:32:19.155Z,1010.03
2018-12-06T02:33:19.135Z,1010.01
2018-12-06T02:34:19.226Z,1009.99
2018-12-06T02:35:19.205Z,1009.99
2018-12-06T02:36:19.283Z,1010.01
2018-12-06T02:37:19.319Z,1009.97
2018-12-06T02:38:19.655Z,1009.96
2018-12-06T02:39:19.325Z,1009.91
2018-12-06T02:40:19.364Z,1009.93
2018-12-06T02:41:19.405Z,1009.88
2018-12-06T02:42:19.484Z,1009.92
2018-12-06T02:43:19.452Z,1009.93
2018-12-06T02:44:19.485Z,1009.89
2018-12-06T02:45:19.827Z,1009.86
2018-12-06T02:46:19.606Z,1009.84
2018-12-06T02:47:19.607Z,1009.86
2018-12-06T02:48:19.689Z,1009.82
2018-12-06T02:49:19.654Z,1009.84
2018-12-06T02:50:19.729Z,1009.80
2018-12-06T02:51:19.864Z,1009.81
2018-12-06T02:52:20.047Z,1009.83
2018-12-06T02:53:19.836Z,1009.76
2018-12-06T02:54:19.861Z,1009.78
2018-12-06T02:55:19.993Z,1009.80
2018-12-06T02:56:19.918Z,1009.75
2018-12-06T02:57:19.959Z,1009.75
2018-12-06T02:58:20.253Z,1009.79
2018-12-06T02:59:19.982Z,1009.80
2018-12-06T03:00:20.044Z,1009.78
2018-12-06T03:01:20.031Z,1009.80
2018-12-06T03:02:20.129Z,1009.80
2018-12-06T03:03:20.148Z,1009.76
2018-12-06T03:04:20.427Z,1009.76
2018-12-06T03:05:20.158Z,1009.77
2018-12-06T03:06:20.189Z,1009.81
2018-12-06T03:07:20.289Z,1009.80
2018-12-06T03:08:20.310Z,1009.80
2018-12-06T03:09:20.294Z,1009.79
2018-12-06T03:10:21.319Z,1009.78
2018-12-06T03:11:20.396Z,1009.76
2018-12-06T03:12:20.396Z,1009.78
2018-12-06T03:13:20.468Z,1009.78
2018-12-06T03:14:20.500Z,1009.81
2018-12-06T03:15:20.537Z,1009.80
2018-12-06T03:16:20.657Z,1009.75
2018-12-06T03:17:20.844Z,1009.80
2018-12-06T03:18:20.635Z,1009.75
2018-12-06T03:19:20.658Z,1009.73
2018-12-06T03:20:20.646Z,1009.73
2018-12-06T03:22:20.770Z,1009.71
2018-12-06T03:23:20.784Z,1009.69
2018-12-06T03:24:21.067Z,1009.70
2018-12-06T03:25:20.813Z,1009.69
2018-12-06T03:27:20.926Z,1009.72
2018-12-06T03:28:20.947Z,1009.73
2018-12-06T03:29:20.929Z,1009.77
2018-12-06T03:31:20.990Z,1009.76
2018-12-06T03:32:21.080Z,1009.76
2018-12-06T03:33:21.113Z,1009.77
2018-12-06T03:34:21.144Z,1009.80
2018-12-06T03:35:21.115Z,1009.78
2018-12-06T03:36:21.154Z,1009.84
2018-12-06T03:37:21.244Z,1009.82
2018-12-06T03:38:21.569Z,1009.83
2018-12-06T03:39:21.301Z,1009.82
2018-12-06T03:40:21.334Z,1009.82
2018-12-06T03:41:21.406Z,1009.82
2018-12-06T03:42:21.439Z,1009.81
2018-12-06T03:43:21.417Z,1009.80
2018-12-06T03:44:21.413Z,1009.82
2018-12-06T03:45:21.768Z,1009.85
2018-12-06T03:46:21.833Z,1009.82
2018-12-06T03:47:21.570Z,1009.85
2018-12-06T03:48:21.533Z,1009.80
2018-12-06T03:49:21.574Z,1009.82
2018-12-06T03:50:21.607Z,1009.84
2018-12-06T03:51:21.679Z,1009.88
2018-12-06T03:52:21.707Z,1009.89
2018-12-06T03:53:21.741Z,1009.87
2018-12-06T03:54:21.776Z,1009.85
2018-12-06T03:55:21.769Z,1009.87
2018-12-06T03:56:21.839Z,1009.86
2018-12-06T03:57:21.869Z,1009.89
2018-12-06T03:58:22.208Z,1009.90
2018-12-06T03:59:21.934Z,1009.93
2018-12-06T04:00:21.914Z,1009.94
2018-12-06T04:01:21.953Z,1009.93
2018-12-06T04:02:22.026Z,1009.93
2018-12-06T04:03:22.007Z,1009.91
2018-12-06T04:04:22.094Z,1009.88
2018-12-06T04:05:22.423Z,1009.85
2018-12-06T04:06:22.157Z,1009.87
2018-12-06T04:07:22.263Z,1009.84
2018-12-06T04:08:22.170Z,1009.83
2018-12-06T04:09:22.272Z,1009.83
2018-12-06T04:10:22.236Z,1009.88
2018-12-06T04:11:22.277Z,1009.86
2018-12-06T04:12:22.301Z,1009.86
2018-12-06T04:13:22.413Z,1009.88
2018-12-06T04:14:22.414Z,1009.87
2018-12-06T04:15:22.452Z,1009.92
2018-12-06T04:16:22.434Z,1009.92
2018-12-06T04:17:22.508Z,1009.91
2018-12-06T04:18:22.839Z,1009.92
2018-12-06T04:19:22.528Z,1009.89
2018-12-06T04:20:22.551Z,1009.96
2018-12-06T04:21:22.582Z,1009.93
2018-12-06T04:22:22.665Z,1009.91
2018-12-06T04:23:22.712Z,1009.94
2018-12-06T04:24:22.983Z,1009.97
2018-12-06T04:25:22.727Z,1009.97
2018-12-06T04:26:22.806Z,1009.99
2018-12-06T04:27:22.849Z,1010.01
2018-12-06T04:28:22.860Z,1010.00
2018-12-06T04:29:22.838Z,1010.04
2018-12-06T04:30:23.238Z,1010.02
2018-12-06T04:31:22.957Z,1010.05
2018-12-06T04:32:22.947Z,1010.05
2018-12-06T04:33:22.970Z,1010.07
2018-12-06T04:34:23.100Z,1010.09
2018-12-06T04:35:23.110Z,1010.10
2018-12-06T04:36:23.115Z,1010.08
2018-12-06T04:37:23.315Z,1010.12
2018-12-06T04:39:23.212Z,1010.08
2018-12-06T04:40:23.248Z,1010.07
2018-12-06T04:41:23.279Z,1010.05
2018-12-06T04:43:23.592Z,1010.07
2018-12-06T04:44:23.315Z,1010.09
2018-12-06T04:45:23.403Z,1010.08
2018-12-06T04:46:23.433Z,1010.08
2018-12-06T04:47:23.467Z,1010.11
2018-12-06T04:48:23.501Z,1010.09
2018-12-06T04:49:23.538Z,1010.08
2018-12-06T04:50:23.875Z,1010.11
2018-12-06T04:51:23.637Z,1010.09
2018-12-06T04:52:23.720Z,1010.16
2018-12-06T04:53:23.660Z,1010.21
2018-12-06T04:54:23.708Z,1010.19
2018-12-06T04:55:23.783Z,1010.23
2018-12-06T04:56:23.699Z,1010.24
2018-12-06T04:57:24.036Z,1010.28
2018-12-06T04:58:23.917Z,1010.25
2018-12-06T05:00:23.882Z,1010.24
2018-12-06T05:01:23.866Z,1010.28
2018-12-06T05:02:23.951Z,1010.31
2018-12-06T05:03:23.985Z,1010.29
2018-12-06T05:04:24.381Z,1010.33
2018-12-06T05:05:23.991Z,1010.29
2018-12-06T05:06:24.074Z,1010.28
2018-12-06T05:07:24.103Z,1010.29
2018-12-06T05:08:24.191Z,1010.33
2018-12-06T05:09:24.172Z,1010.31
2018-12-06T05:10:24.303Z,1010.31
2018-12-06T05:11:24.484Z,1010.32
2018-12-06T05:12:24.274Z,1010.37
2018-12-06T05:13:24.299Z,1010.39
2018-12-06T05:14:24.629Z,1010.37
2018-12-06T05:15:24.357Z,1010.39
2018-12-06T05:16:24.347Z,1010.33
2018-12-06T05:17:24.375Z,1010.37
2018-12-06T05:18:24.456Z,1010.35
2018-12-06T05:19:24.440Z,1010.38
2018-12-06T05:20:24.518Z,1010.38
2018-12-06T05:21:24.501Z,1010.36
2018-12-06T05:22:24.589Z,1010.38
2018-12-06T05:23:24.612Z,1010.40
2018-12-06T05:24:24.900Z,1010.40
2018-12-06T05:25:24.626Z,1010.37
2018-12-06T05:26:24.715Z,1010.37
2018-12-06T05:27:24.698Z,1010.37
2018-12-06T05:28:24.779Z,1010.40
2018-12-06T05:29:24.807Z,1010.40
2018-12-06T05:30:25.437Z,1010.42
2018-12-06T05:31:24.815Z,1010.45
2018-12-06T05:33:24.937Z,1010.35
2018-12-06T05:34:24.972Z,1010.37
2018-12-06T05:35:24.997Z,1010.39
2018-12-06T05:36:25.277Z,1010.42
2018-12-06T05:37:25.070Z,1010.41
2018-12-06T05:38:25.095Z,1010.39
2018-12-06T05:39:25.122Z,1010.41
2018-12-06T05:40:25.181Z,1010.38
2018-12-06T05:41:25.175Z,1010.42
2018-12-06T05:42:25.485Z,1010.38
2018-12-06T05:43:25.251Z,1010.38
2018-12-06T05:44:25.342Z,1010.39
2018-12-06T05:45:25.320Z,1010.43
2018-12-06T05:46:25.349Z,1010.48
2018-12-06T05:47:25.389Z,1010.50
2018-12-06T05:48:25.368Z,1010.48
2018-12-06T05:49:25.395Z,1010.50
2018-12-06T05:50:25.487Z,1010.55
2018-12-06T05:51:25.504Z,1010.54
2018-12-06T05:52:25.503Z,1010.56
2018-12-06T05:53:25.525Z,1010.61
2018-12-06T05:55:25.685Z,1010.63
2018-12-06T05:56:25.927Z,1010.62
2018-12-06T05:57:25.702Z,1010.60
2018-12-06T05:58:25.733Z,1010.65
2018-12-06T05:59:25.762Z,1010.65
2018-12-06T06:00:25.749Z,1010.65
2018-12-06T06:01:25.778Z,1010.69
2018-12-06T06:02:25.863Z,1010.69
2018-12-06T06:03:26.142Z,1010.73
2018-12-06T06:04:25.933Z,1010.71
2018-12-06T06:05:25.958Z,1010.70
2018-12-06T06:06:25.955Z,1010.72
2018-12-06T06:07:26.022Z,1010.77
2018-12-06T06:08:26.003Z,1010.74
2018-12-06T06:09:26.082Z,1010.76
2018-12-06T06:10:26.388Z,1010.77
2018-12-06T06:11:26.104Z,1010.78
2018-12-06T06:12:26.134Z,1010.80
2018-12-06T06:13:26.158Z,1010.79
2018-12-06T06:14:26.242Z,1010.78
2018-12-06T06:16:26.316Z,1010.82
2018-12-06T06:17:26.604Z,1010.81
2018-12-06T06:18:26.328Z,1010.78
2018-12-06T06:19:26.406Z,1010.79
2018-12-06T06:20:26.388Z,1010.78
2018-12-06T06:21:26.466Z,1010.77
2018-12-06T06:22:32.421Z,1010.75
2018-12-06T06:23:27.201Z,1010.78
2018-12-06T06:24:30.901Z,1010.72
2018-12-06T06:25:29.628Z,1010.74
2018-12-06T06:26:29.230Z,1010.71
2018-12-06T06:27:26.658Z,1010.71
2018-12-06T06:28:26.641Z,1010.69
2018-12-06T06:29:26.670Z,1010.65
2018-12-06T06:30:26.759Z,1010.69
2018-12-06T06:32:27.147Z,1010.76
2018-12-06T06:33:26.804Z,1010.83
2018-12-06T06:34:26.881Z,1010.85
2018-12-06T06:35:27.247Z,1010.89
2018-12-06T06:36:26.891Z,1010.92
2018-12-06T06:37:26.935Z,1010.95
2018-12-06T06:38:27.106Z,1010.96
2018-12-06T06:39:27.004Z,1010.99
2018-12-06T06:40:27.142Z,1011.03
2018-12-06T06:41:27.057Z,1011.03
2018-12-06T06:42:27.142Z,1011.07
2018-12-06T06:43:27.233Z,1011.04
2018-12-06T06:44:27.317Z,1011.04
2018-12-06T06:45:27.241Z,1011.09
2018-12-06T06:46:27.269Z,1011.14
2018-12-06T06:47:28.577Z,1011.15
2018-12-06T06:48:27.340Z,1011.19
2018-12-06T06:49:27.305Z,1011.21
2018-12-06T06:50:27.452Z,1011.21
2018-12-06T06:51:27.435Z,1011.28
2018-12-06T06:52:27.405Z,1011.29
2018-12-06T06:53:27.440Z,1011.34
2018-12-06T06:54:27.516Z,1011.39
2018-12-06T06:55:27.513Z,1011.38
2018-12-06T06:56:27.588Z,1011.32
2018-12-06T06:57:27.562Z,1011.42
2018-12-06T06:58:27.652Z,1011.46
2018-12-06T06:59:27.678Z,1011.45
2018-12-06T07:00:27.664Z,1011.49
2018-12-06T07:01:27.751Z,1011.48
2018-12-06T07:02:27.722Z,1011.50
2018-12-06T07:03:27.824Z,1011.53
2018-12-06T07:04:27.793Z,1011.48
2018-12-06T07:05:27.820Z,1011.50
2018-12-06T07:06:28.019Z,1011.54
2018-12-06T07:07:27.885Z,1011.54
2018-12-06T07:08:27.970Z,1011.51
2018-12-06T07:09:27.956Z,1011.53
2018-12-06T07:10:28.035Z,1011.53
2018-12-06T07:11:28.368Z,1011.59
2018-12-06T07:12:28.096Z,1011.57
2018-12-06T07:13:28.078Z,1011.64
2018-12-06T07:14:28.222Z,1011.66
2018-12-06T07:16:28.172Z,1011.69
2018-12-06T07:17:28.249Z,1011.73
2018-12-06T07:18:28.289Z,1011.68
2018-12-06T07:19:28.269Z,1011.66
2018-12-06T07:20:28.296Z,1011.66
2018-12-06T07:21:28.336Z,1011.65
2018-12-06T07:22:28.417Z,1011.63
2018-12-06T07:23:28.496Z,1011.68
2018-12-06T07:24:28.480Z,1011.76
2018-12-06T07:25:28.458Z,1011.78
2018-12-06T07:26:28.627Z,1011.83
2018-12-06T07:28:28.860Z,1011.81
2018-12-06T07:29:28.595Z,1011.73
2018-12-06T07:30:28.667Z,1011.72
2018-12-06T07:31:28.650Z,1011.69
2018-12-06T07:32:28.814Z,1011.73
2018-12-06T07:33:28.718Z,1011.82
2018-12-06T07:34:28.745Z,1011.85
2018-12-06T07:35:28.780Z,1011.91
2018-12-06T07:36:28.811Z,1011.91
2018-12-06T07:37:28.889Z,1011.94
2018-12-06T07:38:28.928Z,1011.88
2018-12-06T07:40:28.992Z,1011.88
2018-12-06T07:42:29.054Z,1011.88
2018-12-06T07:43:29.089Z,1011.92
2018-12-06T07:44:29.114Z,1011.89
2018-12-06T07:45:29.153Z,1011.86
2018-12-06T07:46:29.181Z,1011.85
2018-12-06T07:47:29.462Z,1011.89
2018-12-06T07:48:29.239Z,1011.93
2018-12-06T07:49:29.231Z,1011.91
2018-12-06T07:50:29.313Z,1012.01
2018-12-06T07:51:29.292Z,1012.04
2018-12-06T07:52:29.369Z,1012.05
2018-12-06T07:53:29.416Z,1012.03
2018-12-06T07:54:29.440Z,1012.01
2018-12-06T07:56:29.453Z,1012.03
2018-12-06T07:57:29.536Z,1012.02
2018-12-06T07:58:29.564Z,1012.00
2018-12-06T07:59:30.156Z,1012.05
2018-12-06T08:00:29.575Z,1012.08
2018-12-06T08:01:29.669Z,1012.09
2018-12-06T08:02:29.704Z,1012.02
2018-12-06T08:03:29.727Z,1012.03
2018-12-06T08:04:29.808Z,1012.02
2018-12-06T08:05:29.735Z,1012.07
2018-12-06T08:06:30.072Z,1012.13
2018-12-06T08:07:29.801Z,1012.20
2018-12-06T08:08:29.831Z,1012.28
2018-12-06T08:10:29.957Z,1012.22
2018-12-06T08:11:29.988Z,1012.21
2018-12-06T08:12:30.018Z,1012.16
2018-12-06T08:13:30.052Z,1012.14
2018-12-06T08:14:30.033Z,1012.16
2018-12-06T08:15:30.111Z,1012.22
2018-12-06T08:16:30.086Z,1012.21
2018-12-06T08:17:30.172Z,1012.16
2018-12-06T08:18:30.203Z,1012.17
2018-12-06T08:19:30.545Z,1012.13
2018-12-06T08:20:30.265Z,1012.13
2018-12-06T08:21:30.262Z,1012.15
2018-12-06T08:22:30.334Z,1012.17
2018-12-06T08:23:30.319Z,1012.10
2018-12-06T08:24:30.396Z,1012.12
2018-12-06T08:25:30.732Z,1012.18
2018-12-06T08:26:30.465Z,1012.14
2018-12-06T08:27:30.548Z,1012.20
2018-12-06T08:28:30.528Z,1012.12
2018-12-06T08:29:30.509Z,1012.16
2018-12-06T08:31:30.625Z,1012.10
2018-12-06T08:32:30.903Z,1012.10
2018-12-06T08:33:30.634Z,1012.09
2018-12-06T08:34:30.718Z,1012.05
2018-12-06T08:35:30.752Z,1012.06
2018-12-06T08:36:30.784Z,1012.07
2018-12-06T08:37:30.816Z,1012.05
2018-12-06T08:38:31.142Z,1012.08
2018-12-06T08:39:30.890Z,1012.12
2018-12-06T08:40:30.858Z,1012.14
2018-12-06T08:41:30.938Z,1012.11
2018-12-06T08:42:30.972Z,1012.10
2018-12-06T08:43:31.842Z,1012.08
2018-12-06T08:44:30.987Z,1012.10
2018-12-06T08:45:31.028Z,1012.16
2018-12-06T08:46:31.100Z,1012.20
2018-12-06T08:47:31.231Z,1012.20
2018-12-06T08:48:31.115Z,1012.28
2018-12-06T08:49:31.202Z,1012.25
2018-12-06T08:50:31.179Z,1012.26
2018-12-06T08:51:31.209Z,1012.29
2018-12-06T08:52:31.302Z,1012.24
2018-12-06T08:53:31.322Z,1012.28
2018-12-06T08:54:31.359Z,1012.26
2018-12-06T08:55:31.338Z,1012.30
2018-12-06T08:56:31.383Z,1012.31
2018-12-06T08:57:31.453Z,1012.32
2018-12-06T08:58:31.485Z,1012.27
2018-12-06T08:59:31.464Z,1012.27
2018-12-06T09:00:31.502Z,1012.23
2018-12-06T09:01:31.530Z,1012.25
2018-12-06T09:02:31.966Z,1012.33
2018-12-06T09:03:31.648Z,1012.30
2018-12-06T09:05:31.713Z,1012.30
2018-12-06T09:06:31.747Z,1012.32
2018-12-06T09:08:31.808Z,1012.30
2018-12-06T09:09:31.838Z,1012.34
2018-12-06T09:10:32.166Z,1012.32
2018-12-06T09:11:31.846Z,1012.34
2018-12-06T09:12:31.890Z,1012.31
2018-12-06T09:14:32.003Z,1012.32
2018-12-06T09:15:32.285Z,1012.28
2018-12-06T09:16:32.063Z,1012.24
2018-12-06T09:17:32.097Z,1012.23
2018-12-06T09:18:32.136Z,1012.26
2018-12-06T09:19:32.113Z,1012.23
2018-12-06T09:20:32.144Z,1012.19
2018-12-06T09:21:32.226Z,1012.14
2018-12-06T09:22:32.253Z,1012.13
2018-12-06T09:23:32.242Z,1012.15
2018-12-06T09:25:32.356Z,1012.16
2018-12-06T09:26:32.382Z,1012.14
2018-12-06T09:27:32.973Z,1012.17
2018-12-06T09:28:32.413Z,1012.14
2018-12-06T09:29:32.494Z,1012.18
2018-12-06T09:30:32.523Z,1012.11
2018-12-06T09:31:32.640Z,1012.05
2018-12-06T09:32:32.525Z,1012.06
2018-12-06T09:33:32.565Z,1012.08
2018-12-06T09:34:32.655Z,1012.07
2018-12-06T09:35:32.722Z,1012.11
2018-12-06T09:36:32.726Z,1012.16
2018-12-06T09:37:32.688Z,1012.18
2018-12-06T09:38:32.769Z,1012.23
2018-12-06T09:39:32.856Z,1012.24
2018-12-06T09:40:32.793Z,1012.29
2018-12-06T09:41:32.875Z,1012.32
2018-12-06T09:42:34.617Z,1012.35
2018-12-06T09:43:33.050Z,1012.44
2018-12-06T09:44:32.907Z,1012.46
2018-12-06T09:45:33.010Z,1012.49
2018-12-06T09:46:33.287Z,1012.47
2018-12-06T09:47:33.072Z,1012.48
2018-12-06T09:48:33.053Z,1012.45
2018-12-06T09:49:33.106Z,1012.50
2018-12-06T09:50:33.160Z,1012.49
2018-12-06T09:51:33.189Z,1012.48
2018-12-06T09:52:33.479Z,1012.53
2018-12-06T09:53:33.257Z,1012.53
2018-12-06T09:54:33.332Z,1012.55
2018-12-06T09:55:33.315Z,1012.61
2018-12-06T09:56:33.345Z,1012.62
2018-12-06T09:57:33.334Z,1012.59
2018-12-06T09:58:33.718Z,1012.66
2018-12-06T09:59:33.394Z,1012.70
2018-12-06T10:00:33.480Z,1012.71
2018-12-06T10:02:33.505Z,1012.72
2018-12-06T10:03:33.578Z,1012.70
2018-12-06T10:04:33.854Z,1012.71
2018-12-06T10:05:33.597Z,1012.73
2018-12-06T10:06:33.677Z,1012.68
2018-12-06T10:07:33.801Z,1012.72
2018-12-06T10:08:33.737Z,1012.73
2018-12-06T10:11:33.784Z,1012.70
2018-12-06T10:12:34.167Z,1012.72
2018-12-06T10:13:33.854Z,1012.76
2018-12-06T10:14:33.886Z,1012.77
2018-12-06T10:15:33.969Z,1012.81
2018-12-06T10:16:33.958Z,1012.77
2018-12-06T10:17:33.984Z,1012.79
2018-12-06T10:18:34.082Z,1012.81
2018-12-06T10:19:34.044Z,1012.81
2018-12-06T10:20:34.121Z,1012.82
2018-12-06T10:21:34.109Z,1012.81
2018-12-06T10:22:34.142Z,1012.77
2018-12-06T10:23:34.184Z,1012.78
2018-12-06T10:24:34.307Z,1012.75
2018-12-06T10:25:34.550Z,1012.75
2018-12-06T10:26:34.371Z,1012.77
2018-12-06T10:27:34.352Z,1012.76
2018-12-06T10:28:34.337Z,1012.78
2018-12-06T10:29:34.371Z,1012.84
2018-12-06T10:30:34.445Z,1012.82
2018-12-06T10:31:34.484Z,1012.81
2018-12-06T10:32:34.566Z,1012.82
2018-12-06T10:34:34.575Z,1012.86
2018-12-06T10:35:34.666Z,1012.86
2018-12-06T10:36:34.651Z,1012.87
2018-12-06T10:37:34.627Z,1012.89
2018-12-06T10:39:34.992Z,1012.87
2018-12-06T10:40:34.721Z,1012.81
2018-12-06T10:41:34.886Z,1012.83
2018-12-06T10:42:34.834Z,1012.82
2018-12-06T10:44:34.904Z,1012.87
2018-12-06T10:45:34.883Z,1012.84
2018-12-06T10:47:34.953Z,1012.84
2018-12-06T10:48:35.036Z,1012.85
2018-12-06T10:49:35.063Z,1012.85
2018-12-06T10:50:35.094Z,1012.85
2018-12-06T10:52:35.119Z,1012.89
2018-12-06T10:53:35.446Z,1012.87
2018-12-06T10:54:35.310Z,1012.85
2018-12-06T10:55:35.318Z,1012.88
2018-12-06T10:56:35.414Z,1012.93
2018-12-06T10:57:35.322Z,1012.82
2018-12-06T10:58:35.439Z,1012.88
2018-12-06T10:59:35.447Z,1012.84
2018-12-06T11:00:35.517Z,1012.86
2018-12-06T11:01:35.465Z,1012.83
2018-12-06T11:02:35.497Z,1012.85
2018-12-06T11:03:35.519Z,1012.81
2018-12-06T11:04:35.549Z,1012.79
2018-12-06T11:05:35.536Z,1012.78
2018-12-06T11:06:35.720Z,1012.76
2018-12-06T11:07:35.767Z,1012.73
2018-12-06T11:08:35.630Z,1012.68
2018-12-06T11:09:35.718Z,1012.66
2018-12-06T11:10:35.747Z,1012.70
2018-12-06T11:11:35.776Z,1012.69
2018-12-06T11:12:36.113Z,1012.68
2018-12-06T11:13:35.793Z,1012.67
2018-12-06T11:14:35.929Z,1012.63
2018-12-06T11:15:35.908Z,1012.70
2018-12-06T11:16:35.943Z,1012.71
2018-12-06T11:17:35.941Z,1012.71
2018-12-06T11:18:36.362Z,1012.73
2018-12-06T11:19:36.048Z,1012.73
2018-12-06T11:20:36.018Z,1012.75
2018-12-06T11:21:36.045Z,1012.80
2018-12-06T11:22:36.234Z,1012.82
2018-12-06T11:23:36.119Z,1012.81
2018-12-06T11:24:36.458Z,1012.81
2018-12-06T11:25:36.236Z,1012.79
2018-12-06T11:26:36.259Z,1012.82
2018-12-06T11:27:36.245Z,1012.72
2018-12-06T11:28:36.329Z,1012.71
2018-12-06T11:30:36.395Z,1012.70
2018-12-06T11:31:36.725Z,1012.71
2018-12-06T11:33:36.438Z,1012.78
2018-12-06T11:34:36.520Z,1012.83
2018-12-06T11:35:36.559Z,1012.85
2018-12-06T11:36:36.541Z,1012.87
2018-12-06T11:37:36.565Z,1012.90
2018-12-06T11:38:36.955Z,1012.93
2018-12-06T11:39:36.676Z,1012.92
2018-12-06T11:40:36.712Z,1012.94
2018-12-06T11:41:42.948Z,1012.99
2018-12-06T11:42:36.727Z,1013.05
2018-12-06T11:43:36.768Z,1013.04
2018-12-06T11:44:36.870Z,1013.00
2018-12-06T11:45:37.123Z,1012.99
2018-12-06T11:46:36.915Z,1013.03
2018-12-06T11:48:36.972Z,1013.07
2018-12-06T11:49:37.290Z,1013.01
2018-12-06T11:51:37.021Z,1013.01
2018-12-06T11:52:37.051Z,1013.01
2018-12-06T11:53:37.099Z,1013.00
2018-12-06T11:54:37.177Z,1012.99
2018-12-06T11:55:37.216Z,1013.01
2018-12-06T11:56:37.278Z,1013.02
2018-12-06T11:57:37.212Z,1013.00
2018-12-06T11:58:37.365Z,1013.00
2018-12-06T11:59:37.324Z,1012.99
2018-12-06T12:00:38.022Z,1012.96
2018-12-06T12:01:37.346Z,1012.99
2018-12-06T12:02:37.432Z,1012.99
2018-12-06T12:03:37.414Z,1012.95
2018-12-06T12:04:37.794Z,1012.96
2018-12-06T12:05:37.477Z,1013.00
2018-12-06T12:06:37.511Z,1012.97
2018-12-06T12:07:37.587Z,1012.94
2018-12-06T12:08:37.614Z,1012.92
2018-12-06T12:09:37.610Z,1012.97
2018-12-06T12:10:37.980Z,1013.01
2018-12-06T12:11:37.665Z,1012.98
2018-12-06T12:12:37.751Z,1013.01
2018-12-06T12:13:37.735Z,1013.04
2018-12-06T12:14:37.859Z,1013.03
2018-12-06T12:15:37.795Z,1013.04
2018-12-06T12:16:37.890Z,1012.99
2018-12-06T12:17:37.920Z,1012.98
2018-12-06T12:18:37.959Z,1013.00
2018-12-06T12:19:37.943Z,1012.97
2018-12-06T12:20:37.955Z,1012.95
2018-12-06T12:22:38.070Z,1012.98
2018-12-06T12:23:38.111Z,1012.99
2018-12-06T12:24:38.084Z,1013.06
2018-12-06T12:25:38.185Z,1013.05
2018-12-06T12:26:38.199Z,1013.07
2018-12-06T12:27:38.239Z,1013.06
2018-12-06T12:28:38.262Z,1013.07
2018-12-06T12:29:38.559Z,1013.03
2018-12-06T12:30:38.339Z,1013.04
2018-12-06T12:31:38.366Z,1013.04
2018-12-06T12:32:38.341Z,1013.05
2018-12-06T12:33:38.447Z,1013.03
2018-12-06T12:34:38.463Z,1013.07
2018-12-06T12:35:38.442Z,1013.05
2018-12-06T12:36:38.774Z,1013.04
2018-12-06T12:37:38.557Z,1013.01
2018-12-06T12:38:38.587Z,1013.00
2018-12-06T12:39:38.620Z,1013.02
2018-12-06T12:40:38.599Z,1013.02
2018-12-06T12:41:38.638Z,1012.99
2018-12-06T12:42:38.665Z,1013.05
2018-12-06T12:43:39.004Z,1013.00
2018-12-06T12:44:38.810Z,1013.06